Time;durP1;ratioP1;P1;durP2;ratioP2;P2;SDS_P1;SDS_P2;PMS_P1;PMS_P2;Temp;Humidity;BMP_temperature;BMP_pressure;BME280_temperature;BME280_humidity;BME280_pressure;Samples;Min_cycle;Max_cycle;Signal;HPM_P1;HPM_P2
2022/10/05 00:00:01;;;;;;;;;;;;;;;18.41;67.36;101359.91;1020415;29;620;-70
2022/10/05 00:00:51;;;;;;;;;;;;;;;18.49;67.52;101354.66;1020376;29;2034;-70
2022/10/05 00:01:42;;;;;;;;;;;;;;;18.50;67.50;101350.97;1024339;29;597;-70
2022/10/05 00:02:32;;;;;;;;;;;;;;;18.48;67.87;101352.94;1024345;29;635;-70
2022/10/05 00:03:22;;;;;;;;;;;;;;;18.51;67.13;101350.81;1024020;29;1598;-71
2022/10/05 00:04:14;;;;;;;;;;;;;;;18.47;67.55;101348.53;1024306;29;622;-71
2022/10/05 00:05:04;;;;;;;;;;;;;;;18.50;67.67;101359.06;1024401;29;706;-70
2022/10/05 00:05:55;;;;;;;;;;;;;;;18.56;68.09;101353.13;1024249;29;639;-71
2022/10/05 00:06:45;;;;;;;;;;;;;;;18.51;67.43;101356.22;1024392;29;686;-71
2022/10/05 00:07:36;;;;;;;;;;;;;;;18.49;67.09;101354.66;1022657;29;1560;-71
2022/10/05 00:08:26;;;;;;;;;;;;;;;18.47;68.30;101353.94;1020316;29;588;-71
2022/10/05 00:09:16;;;;;;;;;;;;;;;18.55;68.07;101348.72;1020255;29;698;-71
2022/10/05 00:10:07;;;;;;;;;;;;;;;18.55;67.32;101357.66;1016991;29;615;-71
2022/10/05 00:10:57;;;;;;;;;;;;;;;18.47;66.96;101354.78;1015949;29;639;-71
2022/10/05 00:11:48;;;;;;;;;;;;;;;18.49;66.97;101349.25;1019048;29;1683;-71
2022/10/05 00:12:38;;;;;;;;;;;;;;;18.50;68.96;101349.13;1021561;29;1547;-70
2022/10/05 00:13:29;;;;;;;;;;;;;;;18.50;68.10;101349.13;1020304;29;619;-71
2022/10/05 00:14:19;;;;;;;;;;;;;;;18.51;68.06;101337.34;1020366;29;599;-71
2022/10/05 00:15:09;;;;;;;;;;;;;;;18.39;67.64;101335.75;1020276;29;682;-71
2022/10/05 00:16:00;;;;;;;;;;;;;;;18.32;67.51;101334.59;1020359;29;774;-70
2022/10/05 00:16:50;;;;;;;;;;;;;;;18.31;67.63;101332.88;1024473;29;725;-70
2022/10/05 00:17:41;;;;;;;;;;;;;;;18.31;68.87;101331.03;1023944;29;886;-70
2022/10/05 00:18:31;;;;;;;;;;;;;;;18.25;67.51;101328.03;1020354;29;725;-70
2022/10/05 00:19:22;;;;;;;;;;;;;;;18.25;68.67;101328.91;1020295;29;627;-69
2022/10/05 00:20:12;;;;;;;;;;;;;;;18.26;67.36;101325.22;1020871;29;553;-69
2022/10/05 00:21:03;;;;;;;;;;;;;;;18.33;67.77;101334.44;1020206;29;1899;-69
2022/10/05 00:21:53;;;;;;;;;;;;;;;18.35;67.79;101327.06;1020426;29;651;-69
2022/10/05 00:22:44;;;;;;;;;;;;;;;18.42;67.82;101334.63;1019807;29;629;-70
2022/10/05 00:23:34;;;;;;;;;;;;;;;18.45;68.11;101328.94;1020337;29;635;-69
2022/10/05 00:24:24;;;;;;;;;;;;;;;18.46;67.83;101328.78;1020218;29;619;-69
2022/10/05 00:25:15;;;;;;;;;;;;;;;18.39;67.58;101324.94;1020219;29;631;-70
2022/10/05 00:26:05;;;;;;;;;;;;;;;18.38;68.76;101329.50;1020360;29;612;-69
2022/10/05 00:26:56;;;;;;;;;;;;;;;18.36;67.39;101326.06;1020304;29;682;-69
2022/10/05 00:27:46;;;;;;;;;;;;;;;18.35;67.76;101324.38;1024239;29;695;-70
2022/10/05 00:28:36;;;;;;;;;;;;;;;18.38;67.89;101316.00;1024318;29;674;-69
2022/10/05 00:29:27;;;;;;;;;;;;;;;18.41;68.18;101317.56;1021281;29;1638;-69
2022/10/05 00:30:17;;;;;;;;;;;;;;;18.43;68.17;101320.13;1020896;29;611;-69
2022/10/05 00:31:08;;;;;;;;;;;;;;;18.49;68.21;101311.47;1020842;29;606;-68
2022/10/05 00:31:58;;;;;;;;;;;;;;;18.44;67.22;101317.31;1020861;29;693;-69
2022/10/05 00:32:49;;;;;;;;;;;;;;;18.45;67.96;101313.59;1017534;29;700;-69
2022/10/05 00:33:39;;;;;;;;;;;;;;;18.45;68.52;101313.59;1016422;29;644;-70
2022/10/05 00:34:29;;;;;;;;;;;;;;;18.48;67.87;101307.06;1016307;29;662;-70
2022/10/05 00:35:20;;;;;;;;;;;;;;;18.41;67.88;101298.69;1015857;29;619;-70
2022/10/05 00:36:10;;;;;;;;;;;;;;;18.37;67.83;101294.56;1016018;29;659;-70
2022/10/05 00:37:01;;;;;;;;;;;;;;;18.38;68.04;101297.13;1016510;29;691;-70
2022/10/05 00:37:51;;;;;;;;;;;;;;;18.39;68.61;101306.06;1018404;29;1674;-70
2022/10/05 00:38:42;;;;;;;;;;;;;;;18.39;68.10;101295.28;1020297;29;647;-70
2022/10/05 00:39:32;;;;;;;;;;;;;;;18.39;67.81;101304.22;1021593;29;652;-69
2022/10/05 00:40:23;;;;;;;;;;;;;;;18.34;68.50;101301.06;1021598;29;714;-69
2022/10/05 00:41:13;;;;;;;;;;;;;;;18.29;67.11;101303.31;1020950;29;1903;-69
2022/10/05 00:42:03;;;;;;;;;;;;;;;18.33;68.05;101307.47;1022090;29;700;-69
2022/10/05 00:42:54;;;;;;;;;;;;;;;18.35;67.64;101296.53;1021563;29;685;-69
2022/10/05 00:43:44;;;;;;;;;;;;;;;18.38;67.91;101296.25;1021566;29;685;-70
2022/10/05 00:44:35;;;;;;;;;;;;;;;18.35;67.58;101301.94;1021454;29;1227;-70
2022/10/05 00:45:26;;;;;;;;;;;;;;;18.34;67.36;101305.63;1021488;29;628;-70
2022/10/05 00:46:16;;;;;;;;;;;;;;;18.30;68.03;101299.63;1020432;29;694;-69
2022/10/05 00:47:06;;;;;;;;;;;;;;;18.27;68.13;101302.59;1021364;29;1595;-70
2022/10/05 00:47:57;;;;;;;;;;;;;;;18.31;68.20;101300.50;1024975;29;702;-70
2022/10/05 00:48:47;;;;;;;;;;;;;;;18.38;68.48;101302.50;1024914;29;619;-69
2022/10/05 00:49:38;;;;;;;;;;;;;;;18.31;67.24;101300.50;1024927;29;701;-71
2022/10/05 00:50:28;;;;;;;;;;;;;;;18.30;67.52;101296.94;1025440;29;641;-70
2022/10/05 00:51:19;;;;;;;;;;;;;;;18.33;68.33;101296.66;1024384;29;564;-69
2022/10/05 00:52:09;;;;;;;;;;;;;;;18.28;67.95;101293.53;1022235;29;1662;-69
2022/10/05 00:53:00;;;;;;;;;;;;;;;18.31;67.29;101298.66;1021640;29;569;-70
2022/10/05 00:53:50;;;;;;;;;;;;;;;18.32;68.27;101296.81;1021466;29;767;-70
2022/10/05 00:54:40;;;;;;;;;;;;;;;18.29;68.01;101297.06;1021393;29;662;-69
2022/10/05 00:55:31;;;;;;;;;;;;;;;18.32;68.51;101291.41;1021310;29;1193;-70
2022/10/05 00:56:21;;;;;;;;;;;;;;;18.23;66.62;101303.91;1020988;29;686;-69
2022/10/05 00:57:12;;;;;;;;;;;;;;;18.23;68.55;101301.19;1017569;29;694;-69
2022/10/05 00:58:02;;;;;;;;;;;;;;;18.28;67.75;101296.22;1018095;29;603;-69
2022/10/05 00:58:52;;;;;;;;;;;;;;;18.33;67.92;101293.97;1018094;29;642;-71
2022/10/05 00:59:43;;;;;;;;;;;;;;;18.36;68.14;101295.53;1017579;29;627;-70
2022/10/05 01:00:33;;;;;;;;;;;;;;;18.34;67.31;101297.53;1017539;29;635;-69
2022/10/05 01:01:24;;;;;;;;;;;;;;;18.21;68.57;101305.03;1017599;29;686;-69
2022/10/05 01:02:14;;;;;;;;;;;;;;;18.24;68.28;101304.75;1017586;29;662;-70
2022/10/05 01:03:04;;;;;;;;;;;;;;;18.30;68.52;101296.94;1018058;29;662;-70
2022/10/05 01:03:55;;;;;;;;;;;;;;;18.30;68.67;101304.19;1017515;29;651;-70
2022/10/05 01:04:45;;;;;;;;;;;;;;;18.27;68.12;101291.81;1017589;29;639;-70
2022/10/05 01:05:36;;;;;;;;;;;;;;;18.34;68.66;101289.44;1021277;29;1385;-70
2022/10/05 01:06:26;;;;;;;;;;;;;;;18.38;67.34;101291.72;1021459;29;646;-70
2022/10/05 01:07:17;;;;;;;;;;;;;;;18.35;68.12;101285.75;1017472;29;681;-70
2022/10/05 01:08:07;;;;;;;;;;;;;;;18.27;68.12;101288.28;1017109;29;626;-70
2022/10/05 01:08:57;;;;;;;;;;;;;;;18.20;68.42;101290.69;1016348;29;709;-71
2022/10/05 01:09:48;;;;;;;;;;;;;;;18.29;68.29;101287.13;1017060;29;643;-70
2022/10/05 01:10:38;;;;;;;;;;;;;;;18.29;67.77;101280.88;1017094;29;627;-70
2022/10/05 01:11:29;;;;;;;;;;;;;;;18.27;67.48;101278.31;1016319;29;756;-70
2022/10/05 01:12:19;;;;;;;;;;;;;;;18.26;68.94;101287.44;1020534;29;639;-70
2022/10/05 01:13:10;;;;;;;;;;;;;;;18.31;68.20;101274.38;1021355;29;1013;-70
2022/10/05 01:14:00;;;;;;;;;;;;;;;18.33;68.18;101276.94;1020918;29;623;-70
2022/10/05 01:14:50;;;;;;;;;;;;;;;18.37;68.77;101272.97;1021018;29;628;-70
2022/10/05 01:15:41;;;;;;;;;;;;;;;18.39;68.47;101269.13;1020815;29;635;-70
2022/10/05 01:16:31;;;;;;;;;;;;;;;18.37;67.65;101267.56;1025049;29;674;-70
2022/10/05 01:17:22;;;;;;;;;;;;;;;18.39;68.93;101258.34;1024412;29;596;-71
2022/10/05 01:18:12;;;;;;;;;;;;;;;18.35;67.70;101259.59;1020576;29;713;-70
2022/10/05 01:19:03;;;;;;;;;;;;;;;18.35;68.76;101254.22;1020774;29;644;-70
2022/10/05 01:19:53;;;;;;;;;;;;;;;18.36;67.30;101255.06;1020848;29;710;-70
2022/10/05 01:20:43;;;;;;;;;;;;;;;18.38;68.86;101248.53;1024575;29;638;-70
2022/10/05 01:21:34;;;;;;;;;;;;;;;18.31;67.99;101251.91;1024392;29;686;-71
2022/10/05 01:22:24;;;;;;;;;;;;;;;18.30;68.15;101253.78;1020776;29;755;-70
2022/10/05 01:23:15;;;;;;;;;;;;;;;18.28;68.06;101253.06;1020917;29;635;-70
2022/10/05 01:24:05;;;;;;;;;;;;;;;18.26;67.49;101246.97;1020972;29;675;-70
2022/10/05 01:24:55;;;;;;;;;;;;;;;18.29;69.41;101243.13;1020753;29;584;-70
2022/10/05 01:25:46;;;;;;;;;;;;;;;18.30;69.13;101245.69;1020835;29;631;-70
2022/10/05 01:26:36;;;;;;;;;;;;;;;18.30;67.94;101250.22;1021859;29;1617;-70
2022/10/05 01:27:27;;;;;;;;;;;;;;;18.33;68.63;101240.00;1021170;29;1469;-70
2022/10/05 01:28:17;;;;;;;;;;;;;;;18.36;68.40;101239.72;1021327;29;638;-70
2022/10/05 01:29:08;;;;;;;;;;;;;;;18.31;68.05;101239.28;1020535;29;1528;-70
2022/10/05 01:29:58;;;;;;;;;;;;;;;18.30;67.53;101247.53;1021289;29;628;-70
2022/10/05 01:30:49;;;;;;;;;;;;;;;18.31;68.60;101243.84;1020826;29;623;-69
2022/10/05 01:31:39;;;;;;;;;;;;;;;18.22;67.24;101237.44;1023529;29;1622;-70
2022/10/05 01:32:29;;;;;;;;;;;;;;;18.21;67.89;101246.53;1024670;29;603;-70
2022/10/05 01:33:20;;;;;;;;;;;;;;;18.12;67.67;101247.34;1028953;28;682;-70
2022/10/05 01:34:10;;;;;;;;;;;;;;;18.18;68.69;101241.41;1029024;28;658;-70
2022/10/05 01:35:01;;;;;;;;;;;;;;;18.20;68.13;101234.03;1024404;29;670;-71
2022/10/05 01:35:51;;;;;;;;;;;;;;;18.18;67.86;101227.06;1024842;29;706;-70
2022/10/05 01:36:42;;;;;;;;;;;;;;;18.25;68.92;101236.31;1024663;29;587;-70
2022/10/05 01:37:32;;;;;;;;;;;;;;;18.28;67.41;101241.41;1024918;29;714;-70
2022/10/05 01:38:22;;;;;;;;;;;;;;;18.32;68.78;101246.38;1024647;29;1129;-70
2022/10/05 01:39:13;;;;;;;;;;;;;;;18.29;68.19;101235.88;1024694;29;635;-70
2022/10/05 01:40:03;;;;;;;;;;;;;;;18.31;68.22;101236.59;1024800;29;642;-70
2022/10/05 01:40:54;;;;;;;;;;;;;;;18.22;67.65;101237.44;1024649;29;1918;-71
2022/10/05 01:41:44;;;;;;;;;;;;;;;18.19;68.84;101231.47;1029011;28;725;-70
2022/10/05 01:42:35;;;;;;;;;;;;;;;18.18;68.95;101232.47;1028287;28;634;-71
2022/10/05 01:43:25;;;;;;;;;;;;;;;18.11;67.80;101228.59;1025323;28;619;-71
2022/10/05 01:44:15;;;;;;;;;;;;;;;18.15;69.24;101235.44;1024173;29;1265;-71
2022/10/05 01:45:06;;;;;;;;;;;;;;;18.16;68.67;101234.44;1020807;29;635;-71
2022/10/05 01:45:56;;;;;;;;;;;;;;;18.22;69.21;101232.03;1020777;29;643;-71
2022/10/05 01:46:47;;;;;;;;;;;;;;;18.26;68.29;101235.31;1017319;29;639;-71
2022/10/05 01:47:37;;;;;;;;;;;;;;;18.26;68.24;101233.47;1016791;29;613;-71
2022/10/05 01:48:27;;;;;;;;;;;;;;;18.22;68.44;101221.25;1016122;29;635;-71
2022/10/05 01:49:18;;;;;;;;;;;;;;;18.32;68.84;101226.66;1015961;29;651;-71
2022/10/05 01:50:10;;;;;;;;;;;;;;;18.32;68.15;101229.34;1016680;29;635;-71
2022/10/05 01:51:00;;;;;;;;;;;;;;;18.23;68.42;101227.50;1016847;29;651;-71
2022/10/05 01:51:51;;;;;;;;;;;;;;;18.21;69.13;101229.50;1016686;29;666;-71
2022/10/05 01:52:41;;;;;;;;;;;;;;;18.21;68.87;101224.94;1016768;29;699;-70
2022/10/05 01:53:31;;;;;;;;;;;;;;;18.21;68.31;101233.03;1017465;29;615;-70
2022/10/05 01:54:22;;;;;;;;;;;;;;;18.23;68.67;101227.50;1016763;29;620;-70
2022/10/05 01:55:12;;;;;;;;;;;;;;;18.17;67.68;101230.75;1017292;29;655;-69
2022/10/05 01:56:03;;;;;;;;;;;;;;;18.10;68.26;101229.59;1020137;29;1448;-70
2022/10/05 01:56:53;;;;;;;;;;;;;;;17.99;67.62;101228.72;1021345;29;643;-70
2022/10/05 01:57:43;;;;;;;;;;;;;;;18.11;68.49;101228.59;1021206;29;682;-70
2022/10/05 01:58:34;;;;;;;;;;;;;;;18.14;68.39;101212.13;1020697;29;670;-72
2022/10/05 01:59:24;;;;;;;;;;;;;;;18.21;68.58;101219.56;1021222;29;717;-71
2022/10/05 02:00:15;;;;;;;;;;;;;;;18.27;68.49;101210.88;1021246;29;571;-72
2022/10/05 02:01:05;;;;;;;;;;;;;;;18.17;66.94;101211.88;1021119;29;1902;-72
2022/10/05 02:01:56;;;;;;;;;;;;;;;18.24;68.97;101213.03;1020604;29;690;-72
2022/10/05 02:02:46;;;;;;;;;;;;;;;18.22;68.58;101212.31;1020624;29;619;-72
2022/10/05 02:03:36;;;;;;;;;;;;;;;18.16;68.36;101213.72;1021224;29;619;-73
2022/10/05 02:04:27;;;;;;;;;;;;;;;18.21;69.14;101202.50;1021305;29;686;-71
2022/10/05 02:05:18;;;;;;;;;;;;;;;18.18;68.26;101195.53;1021202;29;669;-72
2022/10/05 02:06:08;;;;;;;;;;;;;;;18.19;68.22;101186.47;1022230;29;1633;-72
2022/10/05 02:06:59;;;;;;;;;;;;;;;18.24;68.97;101196.84;1021166;29;686;-72
2022/10/05 02:07:49;;;;;;;;;;;;;;;18.19;68.90;101191.00;1020717;29;602;-72
2022/10/05 02:08:39;;;;;;;;;;;;;;;18.19;67.86;101191.84;1021330;29;615;-72
2022/10/05 02:09:30;;;;;;;;;;;;;;;18.25;68.91;101195.84;1024589;29;611;-72
2022/10/05 02:10:21;;;;;;;;;;;;;;;18.27;68.95;101186.59;1024605;29;579;-72
2022/10/05 02:11:11;;;;;;;;;;;;;;;18.29;68.33;101194.53;1024607;29;631;-71
2022/10/05 02:12:01;;;;;;;;;;;;;;;18.29;69.13;101187.31;1024738;29;623;-70
2022/10/05 02:12:52;;;;;;;;;;;;;;;18.18;68.43;101190.16;1024627;29;567;-70
2022/10/05 02:13:43;;;;;;;;;;;;;;;18.17;67.70;101180.34;1024615;29;615;-70
2022/10/05 02:14:33;;;;;;;;;;;;;;;18.19;68.85;101188.31;1024695;29;647;-70
2022/10/05 02:15:24;;;;;;;;;;;;;;;18.13;68.02;101184.31;1022379;29;1674;-69
2022/10/05 02:16:15;;;;;;;;;;;;;;;18.21;69.42;101176.38;1021252;29;941;-69
2022/10/05 02:17:06;;;;;;;;;;;;;;;18.27;69.31;101180.38;1021162;29;579;-70
2022/10/05 02:17:56;;;;;;;;;;;;;;;18.30;68.60;101185.47;1021085;29;542;-70
2022/10/05 02:18:47;;;;;;;;;;;;;;;18.20;68.08;101182.78;1020716;29;688;-70
2022/10/05 02:19:37;;;;;;;;;;;;;;;18.17;68.25;101179.50;1021231;29;627;-70
2022/10/05 02:20:27;;;;;;;;;;;;;;;18.17;69.28;101176.81;1020626;29;635;-70
2022/10/05 02:21:18;;;;;;;;;;;;;;;18.22;68.57;101175.41;1020496;29;1945;-70
2022/10/05 02:22:08;;;;;;;;;;;;;;;18.24;69.14;101168.00;1021194;29;626;-70
2022/10/05 02:22:59;;;;;;;;;;;;;;;18.23;69.25;101174.41;1020579;29;694;-69
2022/10/05 02:23:49;;;;;;;;;;;;;;;18.25;69.56;101167.03;1020570;29;1662;-70
2022/10/05 02:24:39;;;;;;;;;;;;;;;18.26;69.24;101174.13;1020737;29;1088;-70
2022/10/05 02:25:30;;;;;;;;;;;;;;;18.29;68.80;101178.34;1021126;29;1590;-70
2022/10/05 02:26:20;;;;;;;;;;;;;;;18.25;69.10;101177.81;1021054;29;612;-70
2022/10/05 02:27:11;;;;;;;;;;;;;;;18.18;67.52;101176.66;1021188;29;639;-70
2022/10/05 02:28:01;;;;;;;;;;;;;;;18.19;69.53;101178.38;1021747;29;745;-71
2022/10/05 02:28:52;;;;;;;;;;;;;;;18.16;69.07;101178.66;1021159;29;706;-70
2022/10/05 02:29:42;;;;;;;;;;;;;;;18.21;69.56;101179.09;1020573;29;627;-70
2022/10/05 02:30:32;;;;;;;;;;;;;;;18.21;69.24;101181.78;1020598;29;662;-71
2022/10/05 02:31:23;;;;;;;;;;;;;;;18.25;68.80;101179.66;1021068;29;630;-70
2022/10/05 02:32:13;;;;;;;;;;;;;;;18.20;69.31;101173.81;1020717;29;698;-70
2022/10/05 02:33:04;;;;;;;;;;;;;;;18.20;68.90;101165.72;1020108;29;648;-70
2022/10/05 02:33:54;;;;;;;;;;;;;;;18.18;69.04;101173.97;1020615;29;643;-70
2022/10/05 02:34:45;;;;;;;;;;;;;;;18.23;69.11;101177.09;1020516;29;619;-70
2022/10/05 02:35:35;;;;;;;;;;;;;;;18.18;68.88;101168.56;1017199;29;610;-71
2022/10/05 02:36:26;;;;;;;;;;;;;;;18.18;68.77;101165.88;1016870;29;622;-70
2022/10/05 02:37:16;;;;;;;;;;;;;;;18.17;68.90;101163.31;1020704;29;1635;-71
2022/10/05 02:38:07;;;;;;;;;;;;;;;18.13;69.19;101168.13;1020376;29;1125;-70
2022/10/05 02:38:58;;;;;;;;;;;;;;;18.14;69.13;101169.84;1021058;29;623;-71
2022/10/05 02:39:48;;;;;;;;;;;;;;;18.14;69.54;101177.94;1020589;29;678;-71
2022/10/05 02:40:39;;;;;;;;;;;;;;;18.07;69.64;101174.09;1020444;29;643;-70
2022/10/05 02:41:29;;;;;;;;;;;;;;;18.16;69.19;101184.03;1020001;29;635;-71
2022/10/05 02:42:19;;;;;;;;;;;;;;;18.21;69.24;101186.31;1020152;29;1607;-70
2022/10/05 02:43:10;;;;;;;;;;;;;;;18.18;70.02;101184.75;1021066;29;626;-70
2022/10/05 02:44:01;;;;;;;;;;;;;;;18.23;69.27;101182.50;1021086;29;690;-70
2022/10/05 02:44:51;;;;;;;;;;;;;;;18.23;69.09;101177.09;1020489;29;631;-70
2022/10/05 02:45:41;;;;;;;;;;;;;;;18.13;69.18;101192.41;1020092;29;695;-70
2022/10/05 02:46:32;;;;;;;;;;;;;;;18.18;69.20;101184.75;1020511;29;693;-70
2022/10/05 02:47:22;;;;;;;;;;;;;;;18.19;69.81;101180.22;1020112;29;670;-71
2022/10/05 02:48:13;;;;;;;;;;;;;;;18.22;69.15;101182.63;1020515;29;690;-70
2022/10/05 02:49:03;;;;;;;;;;;;;;;18.16;69.08;101186.75;1020480;29;639;-71
2022/10/05 02:49:53;;;;;;;;;;;;;;;18.15;70.08;101186.88;1020116;29;690;-71
2022/10/05 02:50:44;;;;;;;;;;;;;;;18.17;69.71;101191.13;1020441;29;651;-71
2022/10/05 02:51:34;;;;;;;;;;;;;;;18.14;68.43;101187.88;1020085;29;1044;-71
2022/10/05 02:52:25;;;;;;;;;;;;;;;18.16;69.62;101183.19;1019930;29;706;-70
2022/10/05 02:53:15;;;;;;;;;;;;;;;18.13;68.93;101183.47;1020476;29;642;-70
2022/10/05 02:54:06;;;;;;;;;;;;;;;18.18;69.63;101187.44;1019882;29;616;-69
2022/10/05 02:54:57;;;;;;;;;;;;;;;18.02;68.76;101187.16;1022060;29;1471;-70
2022/10/05 02:55:47;;;;;;;;;;;;;;;18.03;68.70;101180.75;1020261;29;685;-70
2022/10/05 02:56:38;;;;;;;;;;;;;;;18.00;68.56;101186.44;1021030;29;784;-70
2022/10/05 02:57:28;;;;;;;;;;;;;;;18.06;69.92;101180.50;1020443;29;712;-70
2022/10/05 02:58:19;;;;;;;;;;;;;;;18.06;69.10;101177.78;1021040;29;693;-70
2022/10/05 02:59:09;;;;;;;;;;;;;;;18.12;69.35;101177.22;1020501;29;768;-70
2022/10/05 02:59:59;;;;;;;;;;;;;;;18.13;69.14;101176.22;1020594;29;662;-69
2022/10/05 03:00:50;;;;;;;;;;;;;;;18.17;69.25;101180.34;1020462;29;636;-70
2022/10/05 03:01:40;;;;;;;;;;;;;;;18.03;68.39;101175.38;1020048;29;670;-70
2022/10/05 03:02:31;;;;;;;;;;;;;;;18.05;69.64;101178.78;1020371;29;650;-70
2022/10/05 03:03:21;;;;;;;;;;;;;;;17.98;68.34;101183.88;1020488;29;706;-70
2022/10/05 03:04:11;;;;;;;;;;;;;;;17.99;68.68;101182.88;1020584;29;646;-70
2022/10/05 03:05:02;;;;;;;;;;;;;;;17.99;68.42;101187.41;1020444;29;698;-70
2022/10/05 03:05:52;;;;;;;;;;;;;;;18.02;69.14;101184.44;1020508;29;663;-70
2022/10/05 03:06:43;;;;;;;;;;;;;;;17.99;68.25;101182.03;1024719;29;659;-70
2022/10/05 03:07:33;;;;;;;;;;;;;;;17.83;69.15;101184.41;1024696;29;562;-70
2022/10/05 03:08:23;;;;;;;;;;;;;;;17.83;69.21;101187.97;1020775;29;622;-70
2022/10/05 03:09:15;;;;;;;;;;;;;;;17.87;68.44;101189.41;1020660;29;1651;-70
2022/10/05 03:10:05;;;;;;;;;;;;;;;17.87;68.69;101193.94;1024436;29;674;-69
2022/10/05 03:10:55;;;;;;;;;;;;;;;17.92;69.17;101191.66;1024553;29;642;-70
2022/10/05 03:11:46;;;;;;;;;;;;;;;17.90;69.72;101182.88;1024428;29;586;-70
2022/10/05 03:12:36;;;;;;;;;;;;;;;17.92;69.57;101192.50;1025004;29;639;-71
2022/10/05 03:13:27;;;;;;;;;;;;;;;17.84;68.95;101186.13;1024383;29;626;-69
2022/10/05 03:14:17;;;;;;;;;;;;;;;17.93;69.21;101199.59;1024378;29;630;-71
2022/10/05 03:15:08;;;;;;;;;;;;;;;17.94;69.97;101189.66;1021077;29;650;-71
2022/10/05 03:15:58;;;;;;;;;;;;;;;17.94;69.47;101189.66;1020573;29;650;-70
2022/10/05 03:16:49;;;;;;;;;;;;;;;17.99;67.88;101177.47;1020407;29;583;-70
2022/10/05 03:17:39;;;;;;;;;;;;;;;17.98;68.97;101180.31;1021882;29;1619;-70
2022/10/05 03:18:29;;;;;;;;;;;;;;;18.01;69.20;101180.03;1024414;29;623;-70
2022/10/05 03:19:20;;;;;;;;;;;;;;;17.96;68.84;101183.16;1024392;29;868;-70
2022/10/05 03:20:10;;;;;;;;;;;;;;;18.03;68.83;101178.06;1024517;29;744;-70
2022/10/05 03:21:01;;;;;;;;;;;;;;;18.06;69.17;101176.94;1024298;29;1890;-70
2022/10/05 03:21:51;;;;;;;;;;;;;;;17.91;68.70;101180.03;1024461;29;639;-71
2022/10/05 03:22:42;;;;;;;;;;;;;;;17.92;70.19;101170.94;1024278;29;677;-70
2022/10/05 03:23:32;;;;;;;;;;;;;;;17.99;69.93;101173.94;1024345;29;689;-70
2022/10/05 03:24:23;;;;;;;;;;;;;;;18.01;69.85;101186.28;1024487;29;829;-70
2022/10/05 03:25:13;;;;;;;;;;;;;;;18.03;69.27;101178.91;1024543;29;780;-69
2022/10/05 03:26:04;;;;;;;;;;;;;;;17.97;69.72;101181.31;1024600;29;715;-69
2022/10/05 03:26:55;;;;;;;;;;;;;;;18.00;69.00;101168.41;1024381;29;639;-70
2022/10/05 03:27:45;;;;;;;;;;;;;;;18.01;69.29;101178.19;1024432;29;647;-69
2022/10/05 03:28:36;;;;;;;;;;;;;;;17.99;68.32;101172.09;1028518;28;677;-70
2022/10/05 03:29:26;;;;;;;;;;;;;;;18.00;69.49;101171.09;1028010;28;611;-69
2022/10/05 03:30:17;;;;;;;;;;;;;;;18.00;69.07;101172.94;1024506;29;650;-69
2022/10/05 03:31:07;;;;;;;;;;;;;;;17.99;69.87;101172.09;1023877;29;615;-69
2022/10/05 03:31:58;;;;;;;;;;;;;;;17.96;70.04;101168.81;1024441;29;690;-69
2022/10/05 03:32:48;;;;;;;;;;;;;;;17.96;69.41;101166.97;1024299;29;626;-69
2022/10/05 03:33:39;;;;;;;;;;;;;;;18.01;69.56;101164.72;1024404;29;658;-69
2022/10/05 03:34:29;;;;;;;;;;;;;;;18.01;69.01;101166.56;1024177;29;1590;-70
2022/10/05 03:35:20;;;;;;;;;;;;;;;18.01;69.71;101163.88;1024366;29;615;-70
2022/10/05 03:36:10;;;;;;;;;;;;;;;17.98;69.60;101161.44;1024388;29;625;-70
2022/10/05 03:37:01;;;;;;;;;;;;;;;17.94;69.41;101162.72;1024249;29;869;-69
2022/10/05 03:37:51;;;;;;;;;;;;;;;17.98;70.30;101169.53;1024378;29;631;-69
2022/10/05 03:38:42;;;;;;;;;;;;;;;18.05;69.75;101165.28;1024502;29;667;-70
2022/10/05 03:39:33;;;;;;;;;;;;;;;18.10;69.33;101163.00;1024522;29;1126;-70
2022/10/05 03:40:24;;;;;;;;;;;;;;;18.02;69.17;101166.44;1024416;29;647;-70
2022/10/05 03:41:14;;;;;;;;;;;;;;;18.06;69.81;101172.41;1024243;29;1911;-70
2022/10/05 03:42:05;;;;;;;;;;;;;;;18.09;69.57;101173.97;1024450;29;710;-70
2022/10/05 03:42:55;;;;;;;;;;;;;;;18.04;69.99;101167.13;1024303;29;742;-70
2022/10/05 03:43:45;;;;;;;;;;;;;;;18.06;69.22;101167.00;1024427;29;710;-70
2022/10/05 03:44:36;;;;;;;;;;;;;;;18.04;69.53;101169.84;1020792;29;1276;-70
2022/10/05 03:45:27;;;;;;;;;;;;;;;17.97;69.92;101165.13;1020152;29;1535;-69
2022/10/05 03:46:17;;;;;;;;;;;;;;;17.92;69.09;101160.16;1020979;29;647;-70
2022/10/05 03:47:07;;;;;;;;;;;;;;;17.96;69.75;101155.34;1016515;29;639;-70
2022/10/05 03:47:58;;;;;;;;;;;;;;;17.95;68.98;101165.25;1017041;29;642;-70
2022/10/05 03:48:48;;;;;;;;;;;;;;;17.93;69.61;101166.38;1016992;29;623;-69
2022/10/05 03:49:39;;;;;;;;;;;;;;;17.88;69.26;101163.28;1016988;29;560;-70
2022/10/05 03:50:29;;;;;;;;;;;;;;;17.89;69.72;101162.28;1017062;29;631;-71
2022/10/05 03:51:19;;;;;;;;;;;;;;;17.84;69.53;101159.16;1017042;29;643;-70
2022/10/05 03:52:10;;;;;;;;;;;;;;;17.91;70.19;101153.06;1017028;29;699;-70
2022/10/05 03:53:00;;;;;;;;;;;;;;;17.97;69.24;101160.59;1017049;29;820;-70
2022/10/05 03:53:51;;;;;;;;;;;;;;;17.99;69.31;101155.06;1016907;29;695;-70
2022/10/05 03:54:41;;;;;;;;;;;;;;;18.00;69.25;101162.16;1017532;29;741;-70
2022/10/05 03:55:32;;;;;;;;;;;;;;;17.93;68.66;101156.47;1017106;29;738;-70
2022/10/05 03:56:22;;;;;;;;;;;;;;;17.93;69.08;101155.59;1017029;29;632;-71
2022/10/05 03:57:13;;;;;;;;;;;;;;;17.94;69.55;101151.91;1016983;29;758;-69
2022/10/05 03:58:03;;;;;;;;;;;;;;;17.87;70.00;101154.34;1016988;29;699;-70
2022/10/05 03:58:53;;;;;;;;;;;;;;;17.93;69.61;101155.59;1017060;29;659;-70
2022/10/05 03:59:44;;;;;;;;;;;;;;;17.96;70.13;101144.53;1017527;29;679;-70
2022/10/05 04:00:34;;;;;;;;;;;;;;;17.95;69.34;101142.84;1020604;29;1499;-70
2022/10/05 04:01:25;;;;;;;;;;;;;;;17.91;69.93;101146.84;1020818;29;1964;-70
2022/10/05 04:02:15;;;;;;;;;;;;;;;17.96;69.95;101144.53;1021460;29;724;-70
2022/10/05 04:03:06;;;;;;;;;;;;;;;18.02;69.85;101152.94;1020306;29;716;-70
2022/10/05 04:03:56;;;;;;;;;;;;;;;18.01;69.47;101150.38;1020363;29;639;-70
2022/10/05 04:04:47;;;;;;;;;;;;;;;17.93;69.22;101147.50;1020379;29;654;-70
2022/10/05 04:05:37;;;;;;;;;;;;;;;17.94;69.77;101158.16;1020329;29;623;-70
2022/10/05 04:06:27;;;;;;;;;;;;;;;17.96;69.34;101152.63;1020846;29;615;-70
2022/10/05 04:07:18;;;;;;;;;;;;;;;17.90;69.51;101153.22;1020281;29;611;-70
2022/10/05 04:08:08;;;;;;;;;;;;;;;17.97;70.05;101157.03;1020842;29;635;-71
2022/10/05 04:08:59;;;;;;;;;;;;;;;17.90;68.67;101150.53;1020449;29;651;-71
2022/10/05 04:09:49;;;;;;;;;;;;;;;17.94;69.74;101151.91;1020321;29;635;-70
2022/10/05 04:10:40;;;;;;;;;;;;;;;17.94;69.60;101146.53;1020883;29;702;-72
2022/10/05 04:11:30;;;;;;;;;;;;;;;17.97;69.61;101141.72;1020317;29;632;-71
2022/10/05 04:12:21;;;;;;;;;;;;;;;17.87;67.92;101143.56;1020862;29;634;-71
2022/10/05 04:13:11;;;;;;;;;;;;;;;17.90;69.32;101142.44;1021185;29;643;-71
2022/10/05 04:14:02;;;;;;;;;;;;;;;17.96;69.84;101139.16;1021629;29;643;-71
2022/10/05 04:14:52;;;;;;;;;;;;;;;17.99;69.59;101139.72;1021010;29;1724;-71
2022/10/05 04:15:42;;;;;;;;;;;;;;;17.95;69.03;101142.84;1021670;29;654;-71
2022/10/05 04:16:33;;;;;;;;;;;;;;;17.96;69.73;101144.53;1020985;29;749;-71
2022/10/05 04:17:23;;;;;;;;;;;;;;;17.97;69.90;101148.94;1021088;29;635;-71
2022/10/05 04:18:14;;;;;;;;;;;;;;;17.95;68.54;101138.31;1021182;29;651;-71
2022/10/05 04:19:04;;;;;;;;;;;;;;;17.94;69.92;101147.38;1021136;29;1680;-71
2022/10/05 04:19:54;;;;;;;;;;;;;;;17.82;67.58;101142.25;1021743;29;650;-71
2022/10/05 04:20:45;;;;;;;;;;;;;;;17.88;70.13;101141.72;1020934;29;1555;-71
2022/10/05 04:21:35;;;;;;;;;;;;;;;17.93;69.36;101131.34;1021454;29;1598;-71
2022/10/05 04:22:26;;;;;;;;;;;;;;;17.96;70.09;101133.75;1021669;29;1555;-70
2022/10/05 04:23:16;;;;;;;;;;;;;;;17.89;68.33;101129.94;1021655;29;629;-71
2022/10/05 04:24:07;;;;;;;;;;;;;;;17.93;69.19;101136.72;1021571;29;1577;-70
2022/10/05 04:24:57;;;;;;;;;;;;;;;17.88;69.79;101130.94;1021599;29;625;-71